createdAt,value
2019-05-23T00:01:49.158Z,18.80
2019-05-23T00:04:25.470Z,18.70
2019-05-23T00:06:55.293Z,18.70
2019-05-23T00:09:24.530Z,18.60
2019-05-23T00:11:55.617Z,18.60
2019-05-23T00:14:46.727Z,18.50
2019-05-23T00:17:21.031Z,18.50
2019-05-23T00:19:50.581Z,18.40
2019-05-23T00:22:19.901Z,18.40
2019-05-23T00:24:50.595Z,18.30
2019-05-23T00:27:21.871Z,18.30
2019-05-23T00:29:51.543Z,18.30
2019-05-23T00:32:28.468Z,18.20
2019-05-23T00:34:57.180Z,18.20
2019-05-23T00:37:28.915Z,18.10
2019-05-23T00:39:59.149Z,18.10
2019-05-23T00:42:29.954Z,18.00
2019-05-23T00:45:01.164Z,18.00
2019-05-23T00:47:30.430Z,18.00
2019-05-23T00:49:59.237Z,17.90
2019-05-23T00:52:29.334Z,17.80
2019-05-23T00:54:58.271Z,17.80
2019-05-23T00:57:28.596Z,17.80
2019-05-23T00:59:57.803Z,17.70
2019-05-23T01:02:27.760Z,17.60
2019-05-23T01:04:56.387Z,17.60
2019-05-23T01:07:26.007Z,17.50
2019-05-23T01:09:54.878Z,17.50
2019-05-23T01:12:25.351Z,17.50
2019-05-23T01:14:54.782Z,17.50
2019-05-23T01:17:26.020Z,17.40
2019-05-23T01:19:56.731Z,17.50
2019-05-23T01:22:25.643Z,17.40
2019-05-23T01:24:55.906Z,17.40
2019-05-23T01:27:25.162Z,17.40
2019-05-23T01:29:56.111Z,17.40
2019-05-23T01:32:38.714Z,17.40
2019-05-23T01:35:09.199Z,17.30
2019-05-23T01:37:39.545Z,17.30
2019-05-23T01:40:09.031Z,17.30
2019-05-23T01:42:38.614Z,17.20
2019-05-23T01:45:10.183Z,17.20
2019-05-23T01:47:39.226Z,17.20
2019-05-23T01:50:10.809Z,17.20
2019-05-23T01:52:41.903Z,17.30
2019-05-23T01:55:12.015Z,17.20
2019-05-23T01:57:40.625Z,17.20
2019-05-23T02:00:12.194Z,17.20
2019-05-23T02:02:41.766Z,17.20
2019-05-23T02:05:11.830Z,17.20
2019-05-23T02:07:41.749Z,17.20
2019-05-23T02:10:12.534Z,17.20
2019-05-23T02:12:41.231Z,17.20
2019-05-23T02:15:13.039Z,17.20
2019-05-23T02:17:41.818Z,17.20
2019-05-23T02:20:17.206Z,17.20
2019-05-23T02:22:45.754Z,17.20
2019-05-23T02:25:17.008Z,17.20
2019-05-23T02:27:46.978Z,17.20
2019-05-23T02:30:33.373Z,17.20
2019-05-23T02:32:50.341Z,17.20
2019-05-23T02:35:19.624Z,17.20
2019-05-23T02:37:50.326Z,17.20
2019-05-23T02:40:38.265Z,17.30
2019-05-23T02:43:08.547Z,17.20
2019-05-23T02:45:47.596Z,17.30
2019-05-23T02:48:30.870Z,17.30
2019-05-23T02:51:08.917Z,17.30
2019-05-23T02:53:38.988Z,17.30
2019-05-23T02:56:11.832Z,17.30
2019-05-23T02:58:47.899Z,17.30
2019-05-23T03:01:27.014Z,17.30
2019-05-23T03:03:57.322Z,17.30
2019-05-23T03:06:27.475Z,17.40
2019-05-23T03:08:57.353Z,17.30
2019-05-23T03:11:30.751Z,17.40
2019-05-23T03:14:00.474Z,17.40
2019-05-23T03:16:31.849Z,17.40
2019-05-23T03:19:07.164Z,17.40
2019-05-23T03:21:37.761Z,17.50
2019-05-23T03:24:07.546Z,17.50
2019-05-23T03:26:42.243Z,17.50
2019-05-23T03:29:11.618Z,17.50
2019-05-23T03:31:46.359Z,17.50
2019-05-23T03:34:16.703Z,17.60
2019-05-23T03:36:45.865Z,17.60
2019-05-23T03:39:14.874Z,17.60
2019-05-23T03:41:44.923Z,17.60
2019-05-23T03:44:13.771Z,17.60
2019-05-23T03:46:46.543Z,17.60
2019-05-23T03:49:17.126Z,17.70
2019-05-23T03:51:45.976Z,17.70
2019-05-23T03:54:15.489Z,17.80
2019-05-23T03:56:44.145Z,17.80
2019-05-23T03:59:13.153Z,17.70
2019-05-23T04:01:48.592Z,17.70
2019-05-23T04:04:16.307Z,17.70
2019-05-23T04:06:47.576Z,17.70
2019-05-23T04:09:16.452Z,17.80
2019-05-23T04:11:45.475Z,17.80
2019-05-23T04:14:14.410Z,17.80
2019-05-23T04:16:43.118Z,17.90
2019-05-23T04:19:11.836Z,17.90
2019-05-23T04:21:40.932Z,18.00
2019-05-23T04:24:09.788Z,18.00
2019-05-23T04:26:40.146Z,18.20
2019-05-23T04:29:09.944Z,18.40
2019-05-23T04:31:38.624Z,18.60
2019-05-23T04:34:07.966Z,18.80
2019-05-23T04:36:36.600Z,19.00
2019-05-23T04:39:06.797Z,19.20
2019-05-23T04:41:36.205Z,19.40
2019-05-23T04:44:06.341Z,19.50
2019-05-23T04:46:36.235Z,19.60
2019-05-23T04:49:05.286Z,19.70
2019-05-23T04:51:34.960Z,19.70
2019-05-23T04:54:04.539Z,19.70
2019-05-23T04:56:33.321Z,19.70
2019-05-23T04:59:03.775Z,19.60
2019-05-23T05:01:32.919Z,19.50
2019-05-23T05:04:02.285Z,19.40
2019-05-23T05:06:31.816Z,19.40
2019-05-23T05:09:01.581Z,19.40
2019-05-23T05:11:30.705Z,19.30
2019-05-23T05:14:01.906Z,19.20
2019-05-23T05:16:31.423Z,19.20
2019-05-23T05:19:00.321Z,19.30
2019-05-23T05:21:28.980Z,19.30
2019-05-23T05:23:57.823Z,19.30
2019-05-23T05:26:26.858Z,19.40
2019-05-23T05:28:55.838Z,19.50
2019-05-23T05:31:24.955Z,19.40
2019-05-23T05:33:53.955Z,19.40
2019-05-23T05:36:22.847Z,19.40
2019-05-23T05:38:52.233Z,19.40
2019-05-23T05:41:21.535Z,19.40
2019-05-23T05:43:51.290Z,19.30
2019-05-23T05:46:20.627Z,19.40
2019-05-23T05:48:49.665Z,19.40
2019-05-23T05:51:18.416Z,19.50
2019-05-23T05:53:48.317Z,19.70
2019-05-23T05:56:16.978Z,19.80
2019-05-23T05:58:46.068Z,20.00
2019-05-23T06:01:31.121Z,20.10
2019-05-23T06:03:46.622Z,20.30
2019-05-23T06:06:17.914Z,20.30
2019-05-23T06:08:48.235Z,20.40
2019-05-23T06:11:17.843Z,20.60
2019-05-23T06:13:46.620Z,20.90
2019-05-23T06:16:15.422Z,21.10
2019-05-23T06:18:44.685Z,21.20
2019-05-23T06:21:15.200Z,21.40
2019-05-23T06:23:44.398Z,21.40
2019-05-23T06:26:13.162Z,21.30
2019-05-23T06:28:44.953Z,21.20
2019-05-23T06:31:14.215Z,21.30
2019-05-23T06:33:42.905Z,21.40
2019-05-23T06:36:12.353Z,21.50
2019-05-23T06:38:42.943Z,21.50
2019-05-23T06:41:11.964Z,21.50
2019-05-23T06:43:41.179Z,21.60
2019-05-23T06:46:11.147Z,21.70
2019-05-23T06:48:45.408Z,21.70
2019-05-23T06:51:11.174Z,21.70
2019-05-23T06:53:39.880Z,21.70
2019-05-23T06:56:11.079Z,21.70
2019-05-23T06:58:40.147Z,21.80
2019-05-23T07:01:08.954Z,21.80
2019-05-23T07:03:42.779Z,21.80
2019-05-23T07:06:09.119Z,21.80
2019-05-23T07:08:37.723Z,21.70
2019-05-23T07:11:06.682Z,21.80
2019-05-23T07:13:36.207Z,21.90
2019-05-23T07:16:06.112Z,22.00
2019-05-23T07:18:35.208Z,22.10
2019-05-23T07:21:04.111Z,22.20
2019-05-23T07:23:33.055Z,22.30
2019-05-23T07:26:01.717Z,22.40
2019-05-23T07:28:30.535Z,22.40
2019-05-23T07:30:59.507Z,22.60
2019-05-23T07:33:28.065Z,22.70
2019-05-23T07:35:57.003Z,22.80
2019-05-23T07:38:25.617Z,23.00
2019-05-23T07:40:55.141Z,23.00
2019-05-23T07:43:24.103Z,23.00
2019-05-23T07:45:55.575Z,23.00
2019-05-23T07:48:24.222Z,23.00
2019-05-23T07:50:53.173Z,23.10
2019-05-23T07:53:23.892Z,23.20
2019-05-23T07:55:54.198Z,23.40
2019-05-23T07:58:22.795Z,23.60
2019-05-23T08:00:56.276Z,23.60
2019-05-23T08:03:28.665Z,23.50
2019-05-23T08:05:56.522Z,23.40
2019-05-23T08:08:25.775Z,23.40
2019-05-23T08:10:54.417Z,23.50
2019-05-23T08:13:24.868Z,23.70
2019-05-23T08:15:54.081Z,23.80
2019-05-23T08:18:22.967Z,24.00
2019-05-23T08:20:52.005Z,24.20
2019-05-23T08:23:21.262Z,24.30
2019-05-23T08:25:50.453Z,24.50
2019-05-23T08:28:19.851Z,24.70
2019-05-23T08:30:49.758Z,24.90
2019-05-23T08:33:19.722Z,25.10
2019-05-23T08:35:48.380Z,25.20
2019-05-23T08:38:18.942Z,25.40
2019-05-23T08:40:48.181Z,25.60
2019-05-23T08:43:16.776Z,25.80
2019-05-23T08:45:45.920Z,25.90
2019-05-23T08:48:15.020Z,25.90
2019-05-23T08:50:43.812Z,25.90
2019-05-23T08:53:12.380Z,26.10
2019-05-23T08:55:41.339Z,26.10
2019-05-23T08:58:12.348Z,26.20
2019-05-23T09:00:43.022Z,26.00
2019-05-23T09:03:12.948Z,25.80
2019-05-23T09:05:42.905Z,25.80
2019-05-23T09:08:16.370Z,25.70
2019-05-23T09:10:43.285Z,25.80
2019-05-23T09:13:13.786Z,26.00
2019-05-23T09:15:44.197Z,26.40
2019-05-23T09:18:13.668Z,27.20
2019-05-23T09:20:42.966Z,28.50
2019-05-23T09:23:12.360Z,29.60
2019-05-23T09:25:41.264Z,30.50
2019-05-23T09:28:11.475Z,31.10
2019-05-23T09:30:40.089Z,31.70
2019-05-23T09:33:09.422Z,32.10
2019-05-23T09:35:38.405Z,32.20
2019-05-23T09:38:07.167Z,32.60
2019-05-23T09:40:36.668Z,33.10
2019-05-23T09:43:06.274Z,33.40
2019-05-23T09:45:35.176Z,33.70
2019-05-23T09:48:04.618Z,33.40
2019-05-23T09:50:33.596Z,33.50
2019-05-23T09:53:02.374Z,34.20
2019-05-23T09:55:31.635Z,34.80
2019-05-23T09:58:00.295Z,35.70
2019-05-23T10:00:30.830Z,36.40
2019-05-23T10:03:01.126Z,37.30
2019-05-23T10:05:41.588Z,37.90
2019-05-23T10:08:00.501Z,38.30
2019-05-23T10:10:30.094Z,38.90
2019-05-23T10:12:58.777Z,39.70
2019-05-23T10:15:39.911Z,39.80
2019-05-23T10:18:19.310Z,39.50
2019-05-23T10:20:48.471Z,39.80
2019-05-23T10:23:17.353Z,40.20
2019-05-23T10:25:46.356Z,40.30
2019-05-23T10:28:16.049Z,40.80
2019-05-23T10:30:44.996Z,41.20
2019-05-23T10:33:14.211Z,41.90
2019-05-23T10:35:59.022Z,42.00
2019-05-23T10:38:13.694Z,42.40
2019-05-23T10:40:42.932Z,42.40
2019-05-23T10:43:12.376Z,42.60
2019-05-23T10:45:41.109Z,42.80
2019-05-23T10:48:11.993Z,42.70
2019-05-23T10:50:44.836Z,42.80
2019-05-23T10:53:11.281Z,43.10
2019-05-23T10:55:39.987Z,43.30
2019-05-23T10:58:09.254Z,43.50
2019-05-23T11:00:39.846Z,43.40
2019-05-23T11:03:09.606Z,43.10
2019-05-23T11:05:38.490Z,43.10
2019-05-23T11:08:08.614Z,43.10
2019-05-23T11:10:37.557Z,43.50
2019-05-23T11:13:06.430Z,43.70
2019-05-23T11:15:35.439Z,43.90
2019-05-23T11:18:04.979Z,44.20
2019-05-23T11:20:36.137Z,44.40
2019-05-23T11:23:06.005Z,44.40
2019-05-23T11:25:36.783Z,44.50
2019-05-23T11:28:05.738Z,44.40
2019-05-23T11:30:42.346Z,44.70
2019-05-23T11:33:12.570Z,44.70
2019-05-23T11:35:42.172Z,44.70
2019-05-23T11:38:11.338Z,44.90
2019-05-23T11:40:40.195Z,45.20
2019-05-23T11:43:09.016Z,45.10
2019-05-23T11:45:46.065Z,44.90
2019-05-23T11:48:15.943Z,44.70
2019-05-23T11:50:43.544Z,45.10
2019-05-23T11:53:12.214Z,45.40
2019-05-23T11:55:42.046Z,45.60
2019-05-23T11:58:10.862Z,45.70
2019-05-23T12:00:52.696Z,45.70
2019-05-23T12:03:21.784Z,45.80
2019-05-23T12:05:53.239Z,45.90
2019-05-23T12:08:21.930Z,46.00
2019-05-23T12:10:50.623Z,45.90
2019-05-23T12:13:21.326Z,45.90
2019-05-23T12:15:50.555Z,46.00
2019-05-23T12:18:19.193Z,46.60
2019-05-23T12:20:48.009Z,46.60
2019-05-23T12:23:17.695Z,46.10
2019-05-23T12:25:46.969Z,45.30
2019-05-23T12:28:16.105Z,44.50
2019-05-23T12:30:45.555Z,44.40
2019-05-23T12:33:14.187Z,44.90
2019-05-23T12:35:42.899Z,45.70
2019-05-23T12:38:11.881Z,46.40
2019-05-23T12:40:40.820Z,46.60
2019-05-23T12:43:09.504Z,46.20
2019-05-23T12:45:38.194Z,46.20
2019-05-23T12:48:12.282Z,46.40
2019-05-23T12:50:54.222Z,46.00
2019-05-23T12:53:24.538Z,46.00
2019-05-23T12:55:53.483Z,46.20
2019-05-23T12:58:24.279Z,46.40
2019-05-23T13:00:57.826Z,46.60
2019-05-23T13:03:26.396Z,46.60
2019-05-23T13:06:14.672Z,46.20
2019-05-23T13:08:43.352Z,46.10
2019-05-23T13:11:12.375Z,46.40
2019-05-23T13:13:41.091Z,46.10
2019-05-23T13:16:09.913Z,45.90
2019-05-23T13:18:38.560Z,45.90
2019-05-23T13:21:07.149Z,45.90
2019-05-23T13:23:36.050Z,45.90
2019-05-23T13:26:06.245Z,45.80
2019-05-23T13:28:34.977Z,45.80
2019-05-23T13:31:03.706Z,46.20
2019-05-23T13:33:33.042Z,46.00
2019-05-23T13:36:02.348Z,45.90
2019-05-23T13:38:31.498Z,46.00
2019-05-23T13:41:00.296Z,45.90
2019-05-23T13:43:29.281Z,45.90
2019-05-23T13:45:58.559Z,45.50
2019-05-23T13:48:28.469Z,44.80
2019-05-23T13:50:57.540Z,44.10
2019-05-23T13:53:26.704Z,43.00
2019-05-23T13:55:56.794Z,42.70
2019-05-23T13:58:25.650Z,42.80
2019-05-23T14:00:54.329Z,43.20
2019-05-23T14:03:23.167Z,44.10
2019-05-23T14:05:51.799Z,44.60
2019-05-23T14:08:20.724Z,45.20
2019-05-23T14:10:49.508Z,44.90
2019-05-23T14:13:18.420Z,43.40
2019-05-23T14:15:49.343Z,42.60
2019-05-23T14:18:19.698Z,42.00
2019-05-23T14:20:48.959Z,42.20
2019-05-23T14:23:24.863Z,42.70
2019-05-23T14:25:54.507Z,43.10
2019-05-23T14:28:24.027Z,43.90
2019-05-23T14:31:09.619Z,44.60
2019-05-23T14:33:40.221Z,45.10
2019-05-23T14:36:13.221Z,45.50
2019-05-23T14:38:42.317Z,45.20
2019-05-23T14:41:11.342Z,45.10
2019-05-23T14:43:40.572Z,45.00
2019-05-23T14:46:11.522Z,45.30
2019-05-23T14:48:44.887Z,45.30
2019-05-23T14:51:15.452Z,45.30
2019-05-23T14:53:51.077Z,45.00
2019-05-23T14:56:21.303Z,45.00
2019-05-23T14:58:50.457Z,44.90
2019-05-23T15:01:19.551Z,44.30
2019-05-23T15:03:48.314Z,42.80
2019-05-23T15:06:17.071Z,41.60
2019-05-23T15:08:50.917Z,40.70
2019-05-23T15:11:16.281Z,39.50
2019-05-23T15:13:45.007Z,38.30
2019-05-23T15:16:14.534Z,37.10
2019-05-23T15:18:43.110Z,35.80
2019-05-23T15:21:12.398Z,34.60
2019-05-23T15:23:41.813Z,33.90
2019-05-23T15:26:22.376Z,33.20
2019-05-23T15:28:41.195Z,32.60
2019-05-23T15:31:11.412Z,32.20
2019-05-23T15:33:40.046Z,31.60
2019-05-23T15:36:08.760Z,31.30
2019-05-23T15:38:39.392Z,31.10
2019-05-23T15:41:08.139Z,31.10
2019-05-23T15:43:37.542Z,31.10
2019-05-23T15:46:06.262Z,30.90
2019-05-23T15:48:34.979Z,30.70
2019-05-23T15:51:04.311Z,30.30
2019-05-23T15:53:48.476Z,29.90
2019-05-23T15:56:35.425Z,29.30
2019-05-23T15:59:20.994Z,28.60
2019-05-23T16:01:54.698Z,28.20
2019-05-23T16:04:24.838Z,27.90
2019-05-23T16:06:53.603Z,27.80
2019-05-23T16:09:30.153Z,27.80
2019-05-23T16:11:54.317Z,27.50
2019-05-23T16:14:25.647Z,27.10
2019-05-23T16:16:57.320Z,26.80
2019-05-23T16:19:26.801Z,26.40
2019-05-23T16:21:56.831Z,26.20
2019-05-23T16:24:26.742Z,26.00
2019-05-23T16:26:56.072Z,25.70
2019-05-23T16:29:25.786Z,25.50
2019-05-23T16:31:54.575Z,25.40
2019-05-23T16:34:23.451Z,25.40
2019-05-23T16:36:52.379Z,25.50
2019-05-23T16:39:21.189Z,25.30
2019-05-23T16:41:49.858Z,25.30
2019-05-23T16:44:18.793Z,25.20
2019-05-23T16:46:47.621Z,25.10
2019-05-23T16:49:16.643Z,25.00
2019-05-23T16:51:45.452Z,24.90
2019-05-23T16:54:15.741Z,24.80
2019-05-23T16:56:52.273Z,24.70
2019-05-23T16:59:26.000Z,24.50
2019-05-23T17:02:05.581Z,24.50
2019-05-23T17:04:40.866Z,24.20
2019-05-23T17:07:13.951Z,24.20
2019-05-23T17:10:06.047Z,24.00
2019-05-23T17:12:36.112Z,24.00
2019-05-23T17:15:11.051Z,23.80
2019-05-23T17:18:02.067Z,23.80
2019-05-23T17:20:31.310Z,23.80
2019-05-23T17:23:17.795Z,24.00
2019-05-23T17:25:57.292Z,24.00
2019-05-23T17:28:30.499Z,24.10
2019-05-23T17:31:07.076Z,24.10
2019-05-23T17:33:37.103Z,24.10
2019-05-23T17:36:06.345Z,24.00
2019-05-23T17:38:35.401Z,23.90
2019-05-23T17:41:04.423Z,23.80
2019-05-23T17:43:34.897Z,23.70
2019-05-23T17:46:03.992Z,23.50
2019-05-23T17:48:32.733Z,23.20
2019-05-23T17:51:01.522Z,23.00
2019-05-23T17:53:30.586Z,22.90
2019-05-23T17:55:59.919Z,22.70
2019-05-23T17:58:28.595Z,22.60
2019-05-23T18:00:58.389Z,22.60
2019-05-23T18:03:27.847Z,22.50
2019-05-23T18:05:56.517Z,22.40
2019-05-23T18:08:29.482Z,22.30
2019-05-23T18:10:59.391Z,22.10
2019-05-23T18:13:29.301Z,21.90
2019-05-23T18:15:58.445Z,21.90
2019-05-23T18:18:27.509Z,21.90
2019-05-23T18:20:56.317Z,21.80
2019-05-23T18:23:25.008Z,21.70
2019-05-23T18:25:53.993Z,21.70
2019-05-23T18:28:22.938Z,21.70
2019-05-23T18:30:53.472Z,21.70
2019-05-23T18:33:24.341Z,21.50
2019-05-23T18:35:54.856Z,21.40
2019-05-23T18:38:24.074Z,21.40
2019-05-23T18:41:02.326Z,21.20
2019-05-23T18:43:24.787Z,21.20
2019-05-23T18:45:55.140Z,21.10
2019-05-23T18:48:24.983Z,21.00
2019-05-23T18:50:54.036Z,20.90
2019-05-23T18:53:23.161Z,20.80
2019-05-23T18:55:52.137Z,20.70
2019-05-23T18:58:21.419Z,20.60
2019-05-23T19:00:53.962Z,20.60
2019-05-23T19:03:23.998Z,20.60
2019-05-23T19:05:53.094Z,20.50
2019-05-23T19:08:22.740Z,20.30
2019-05-23T19:10:56.686Z,20.10
2019-05-23T19:13:26.785Z,20.10
2019-05-23T19:15:55.985Z,20.10
2019-05-23T19:18:26.385Z,20.10
2019-05-23T19:20:56.631Z,20.00
2019-05-23T19:23:26.226Z,19.90
2019-05-23T19:25:55.527Z,19.90
2019-05-23T19:28:25.637Z,19.90
2019-05-23T19:30:55.486Z,19.80
2019-05-23T19:33:25.271Z,19.90
2019-05-23T19:35:54.770Z,19.70
2019-05-23T19:38:23.939Z,19.70
2019-05-23T19:40:53.794Z,19.50
2019-05-23T19:43:24.607Z,19.40
2019-05-23T19:45:53.757Z,19.50
2019-05-23T19:48:23.521Z,19.40
2019-05-23T19:50:53.153Z,19.50
2019-05-23T19:53:21.800Z,19.50
2019-05-23T19:55:50.789Z,19.40
2019-05-23T19:58:19.573Z,19.40
2019-05-23T20:00:49.091Z,19.40
2019-05-23T20:03:18.705Z,19.30
2019-05-23T20:05:58.392Z,19.30
2019-05-23T20:08:27.051Z,19.20
2019-05-23T20:10:56.082Z,19.30
2019-05-23T20:13:24.982Z,19.30
2019-05-23T20:15:53.786Z,19.30
2019-05-23T20:18:22.696Z,19.30
2019-05-23T20:20:51.985Z,19.30
2019-05-23T20:23:20.745Z,19.30
2019-05-23T20:25:49.891Z,19.20
2019-05-23T20:28:19.317Z,19.20
2019-05-23T20:30:52.284Z,19.20
2019-05-23T20:33:21.429Z,19.10
2019-05-23T20:35:50.856Z,19.10
2019-05-23T20:38:19.729Z,19.10
2019-05-23T20:40:48.478Z,19.10
2019-05-23T20:43:17.153Z,19.00
2019-05-23T20:45:46.402Z,19.00
2019-05-23T20:48:15.547Z,19.00
2019-05-23T20:50:45.176Z,19.00
2019-05-23T20:53:13.968Z,19.00
2019-05-23T20:55:42.939Z,18.90
2019-05-23T20:58:11.614Z,18.90
2019-05-23T21:00:59.988Z,18.80
2019-05-23T21:03:29.150Z,18.80
2019-05-23T21:05:58.304Z,18.70
2019-05-23T21:08:27.286Z,18.70
2019-05-23T21:10:56.207Z,18.60
2019-05-23T21:13:24.955Z,18.60
2019-05-23T21:15:53.950Z,18.60
2019-05-23T21:18:22.708Z,18.60
2019-05-23T21:20:51.396Z,18.60
2019-05-23T21:23:20.463Z,18.50
2019-05-23T21:25:51.074Z,18.60
2019-05-23T21:28:19.655Z,18.60
2019-05-23T21:30:48.407Z,18.60
2019-05-23T21:33:17.097Z,18.60
2019-05-23T21:35:45.874Z,18.60
2019-05-23T21:38:14.531Z,18.50
2019-05-23T21:40:45.055Z,18.50
2019-05-23T21:43:14.021Z,18.40
2019-05-23T21:45:43.107Z,18.40
2019-05-23T21:48:12.369Z,18.20
2019-05-23T21:50:41.108Z,18.10
2019-05-23T21:53:09.774Z,18.10
2019-05-23T21:55:42.837Z,17.90
2019-05-23T21:58:13.366Z,18.00
2019-05-23T22:01:01.411Z,18.00
2019-05-23T22:03:32.248Z,18.00
2019-05-23T22:06:01.797Z,18.00
2019-05-23T22:08:30.836Z,17.90
2019-05-23T22:10:59.482Z,17.80
2019-05-23T22:13:28.134Z,17.80
2019-05-23T22:15:59.894Z,17.70
2019-05-23T22:18:28.833Z,17.60
2019-05-23T22:20:57.606Z,17.50
2019-05-23T22:23:26.415Z,17.40
2019-05-23T22:25:55.092Z,17.30
2019-05-23T22:28:24.172Z,17.20
2019-05-23T22:30:52.739Z,17.10
2019-05-23T22:33:22.967Z,17.00
2019-05-23T22:35:51.648Z,17.00
2019-05-23T22:38:20.287Z,16.90
2019-05-23T22:40:49.010Z,16.80
2019-05-23T22:43:21.036Z,16.70
2019-05-23T22:45:48.198Z,16.60
2019-05-23T22:48:16.769Z,16.60
2019-05-23T22:50:45.461Z,16.70
2019-05-23T22:53:14.073Z,16.70
2019-05-23T22:55:42.642Z,16.60
2019-05-23T22:58:11.378Z,16.70
2019-05-23T23:00:42.064Z,16.70
2019-05-23T23:03:10.737Z,16.70
2019-05-23T23:05:39.505Z,16.70
2019-05-23T23:08:08.710Z,16.80
2019-05-23T23:10:37.665Z,16.80
2019-05-23T23:13:06.920Z,16.80
2019-05-23T23:15:36.059Z,16.90
2019-05-23T23:18:05.383Z,16.90
2019-05-23T23:20:34.062Z,17.00
2019-05-23T23:23:02.622Z,16.90
2019-05-23T23:25:31.986Z,16.90
2019-05-23T23:28:00.729Z,16.90
2019-05-23T23:30:46.041Z,16.90
2019-05-23T23:33:15.124Z,16.80
2019-05-23T23:35:43.745Z,16.70
2019-05-23T23:38:12.382Z,16.70
2019-05-23T23:40:41.439Z,16.70
2019-05-23T23:43:10.402Z,16.60
2019-05-23T23:45:57.288Z,16.60
2019-05-23T23:48:44.267Z,16.60
2019-05-23T23:51:30.806Z,16.60
2019-05-23T23:54:17.322Z,16.50
2019-05-23T23:57:04.185Z,16.50
2019-05-23T23:59:32.894Z,16.50
